Time;durP1;ratioP1;P1;durP2;ratioP2;P2;SDS_P1;SDS_P2;PMS_P1;PMS_P2;Temp;Humidity;BMP_temperature;BMP_pressure;BME280_temperature;BME280_humidity;BME280_pressure;Samples;Min_cycle;Max_cycle;Signal;HPM_P1;HPM_P2
2021/08/10 00:01:27;;;;;;;10.10;7.90;;;16.00;99.90;;;;;;4898588;29;20036;-68
2021/08/10 00:03:53;;;;;;;8.43;7.43;;;16.00;99.90;;;;;;4898495;29;20129;-67
2021/08/10 00:06:19;;;;;;;11.07;7.65;;;15.90;99.90;;;;;;4898670;29;20058;-68
2021/08/10 00:08:46;;;;;;;8.27;7.40;;;15.90;99.90;;;;;;4898518;29;20540;-68
2021/08/10 00:11:12;;;;;;;7.57;6.85;;;15.90;99.90;;;;;;4897517;29;20394;-69
2021/08/10 00:13:38;;;;;;;7.43;6.57;;;15.90;99.90;;;;;;4898686;29;20073;-69
2021/08/10 00:16:04;;;;;;;8.20;7.40;;;15.90;99.90;;;;;;4898111;29;20489;-69
2021/08/10 00:18:29;;;;;;;7.68;6.88;;;15.90;99.90;;;;;;4898526;29;20460;-70
2021/08/10 00:20:55;;;;;;;8.70;7.82;;;15.90;99.90;;;;;;4898451;29;20029;-69
2021/08/10 00:23:21;;;;;;;8.50;7.70;;;15.90;99.90;;;;;;4898234;29;20036;-69
2021/08/10 00:25:47;;;;;;;8.10;7.30;;;15.80;99.90;;;;;;4898427;29;20037;-69
2021/08/10 00:28:13;;;;;;;14.13;7.20;;;15.80;99.90;;;;;;4898130;29;20033;-69
2021/08/10 00:30:41;;;;;;;7.97;6.68;;;15.80;99.90;;;;;;4898133;29;20112;-69
2021/08/10 00:33:08;;;;;;;8.30;7.50;;;15.80;99.90;;;;;;4898187;29;20082;-69
2021/08/10 00:35:34;;;;;;;8.55;7.75;;;15.80;99.90;;;;;;4897899;29;20124;-69
2021/08/10 00:37:59;;;;;;;9.05;8.10;;;15.90;99.90;;;;;;4897714;29;20075;-69
2021/08/10 00:40:25;;;;;;;8.80;7.43;;;15.90;99.90;;;;;;4898037;29;20036;-69
2021/08/10 00:42:51;;;;;;;13.18;7.78;;;15.90;99.90;;;;;;4897723;29;20111;-69
2021/08/10 00:45:17;;;;;;;11.45;10.32;;;15.90;99.90;;;;;;4897966;29;20038;-69
2021/08/10 00:47:43;;;;;;;13.82;8.52;;;15.90;99.90;;;;;;4897801;29;20386;-69
2021/08/10 00:50:09;;;;;;;8.13;7.25;;;15.90;99.90;;;;;;4897662;29;20059;-70
2021/08/10 00:52:35;;;;;;;9.00;8.10;;;15.80;99.90;;;;;;4897792;29;20036;-70
2021/08/10 00:55:03;;;;;;;9.02;8.13;;;15.80;99.90;;;;;;4897489;29;20024;-70
2021/08/10 00:57:29;;;;;;;9.35;8.48;;;15.80;99.90;;;;;;4897907;29;20039;-69
2021/08/10 00:59:55;;;;;;;11.13;7.82;;;15.80;99.90;;;;;;4897405;29;20029;-69
2021/08/10 01:02:20;;;;;;;11.45;7.72;;;15.80;99.90;;;;;;4897809;29;20465;-69
2021/08/10 01:04:46;;;;;;;8.57;7.78;;;15.80;99.90;;;;;;4897498;29;20044;-69
2021/08/10 01:07:57;;;;;;;9.23;7.30;;;15.80;99.90;;;;;;4897239;29;20025;-69
2021/08/10 01:10:40;;;;;;;9.05;7.00;;;15.80;99.90;;;;;;4897512;29;20021;-69
2021/08/10 01:13:22;;;;;;;7.70;6.95;;;15.80;99.90;;;;;;4897503;29;20035;-69
2021/08/10 01:16:05;;;;;;;9.93;7.03;;;15.80;99.90;;;;;;4897452;29;20498;-69
2021/08/10 01:45:11;;;;;;;7.07;6.00;;;15.80;99.90;;;;;;4896953;29;20036;-69
2021/08/10 01:47:39;;;;;;;7.10;6.50;;;15.80;99.90;;;;;;4896777;29;20116;-69
2021/08/10 01:50:05;;;;;;;8.73;6.22;;;15.80;99.90;;;;;;4896785;29;20052;-69
2021/08/10 01:52:32;;;;;;;13.20;6.35;;;15.80;99.90;;;;;;4896729;29;20036;-70
2021/08/10 01:54:58;;;;;;;7.95;5.75;;;15.80;99.90;;;;;;4897053;29;20370;-70
2021/08/10 01:57:26;;;;;;;7.95;6.40;;;15.80;99.90;;;;;;4896711;29;20029;-70
2021/08/10 01:59:54;;;;;;;8.27;5.97;;;15.80;99.90;;;;;;4896881;29;20028;-70
2021/08/10 02:02:21;;;;;;;10.32;5.93;;;15.80;99.90;;;;;;4896923;29;20032;-70
2021/08/10 02:04:48;;;;;;;6.30;5.70;;;15.80;99.90;;;;;;4896881;29;20028;-70
2021/08/10 02:07:15;;;;;;;7.88;5.90;;;15.80;99.90;;;;;;4897065;29;20396;-70
2021/08/10 02:09:41;;;;;;;7.35;5.30;;;15.90;99.90;;;;;;4897211;29;20029;-70
2021/08/10 02:12:08;;;;;;;6.50;5.47;;;15.80;99.90;;;;;;4896783;29;20119;-70
2021/08/10 02:14:36;;;;;;;7.70;5.40;;;15.90;99.90;;;;;;4896665;29;20037;-70
2021/08/10 02:17:04;;;;;;;6.70;5.40;;;15.90;99.90;;;;;;4896609;29;20041;-70
2021/08/10 02:19:31;;;;;;;8.65;5.43;;;15.90;99.90;;;;;;4896738;29;20021;-70
2021/08/10 02:22:08;;;;;;;8.32;5.80;;;15.90;99.90;;;;;;4896969;29;20033;-70
2021/08/10 02:24:43;;;;;;;6.32;5.70;;;15.90;99.90;;;;;;4896506;29;20056;-70
2021/08/10 02:27:15;;;;;;;6.65;6.00;;;15.90;99.90;;;;;;4896961;29;20052;-69
2021/08/10 02:29:48;;;;;;;7.35;6.07;;;15.90;99.90;;;;;;4896667;29;20051;-69
2021/08/10 02:32:21;;;;;;;6.93;5.30;;;15.90;99.90;;;;;;4896650;29;20500;-68
2021/08/10 02:34:47;;;;;;;5.30;4.80;;;15.90;99.90;;;;;;4900078;29;20033;-69
2021/08/10 02:37:15;;;;;;;5.70;4.25;;;15.90;99.90;;;;;;4900113;29;20465;-68
2021/08/10 02:39:43;;;;;;;5.40;4.90;;;15.80;99.90;;;;;;4900178;29;20027;-69
2021/08/10 02:42:10;;;;;;;4.47;4.07;;;15.90;99.90;;;;;;4900318;29;20035;-68
2021/08/10 02:44:42;;;;;;;5.60;4.72;;;15.80;99.90;;;;;;4900182;29;20032;-68
2021/08/10 02:47:08;;;;;;;4.68;3.90;;;15.80;99.90;;;;;;4900018;29;20483;-68
2021/08/10 02:49:34;;;;;;;3.88;3.47;;;15.80;99.90;;;;;;4899697;29;20044;-68
2021/08/10 02:52:00;;;;;;;2.80;2.60;;;15.80;99.90;;;;;;4900157;29;20040;-68
2021/08/10 02:54:26;;;;;;;3.30;3.00;;;15.80;99.90;;;;;;4899828;29;20437;-68
2021/08/10 02:57:00;;;;;;;8.55;4.97;;;15.80;99.90;;;;;;4899720;29;20111;-68
2021/08/10 02:59:31;;;;;;;6.05;5.45;;;15.80;99.90;;;;;;4899803;29;20052;-69
2021/08/10 03:02:17;;;;;;;6.30;5.70;;;15.70;99.90;;;;;;4899813;29;20088;-68
2021/08/10 03:04:55;;;;;;;6.75;5.20;;;15.70;99.90;;;;;;4899817;29;20025;-68
2021/08/10 03:07:23;;;;;;;6.97;6.05;;;15.70;99.90;;;;;;4899434;29;20040;-68
2021/08/10 03:09:54;;;;;;;6.82;6.18;;;15.70;99.90;;;;;;4899790;29;20115;-68
2021/08/10 03:12:24;;;;;;;11.20;6.60;;;15.70;99.90;;;;;;4899700;29;20025;-68
2021/08/10 03:14:51;;;;;;;10.45;7.40;;;15.70;99.90;;;;;;4899567;29;20031;-68
2021/08/10 03:17:19;;;;;;;7.50;6.70;;;15.70;99.90;;;;;;4899558;29;20044;-68
2021/08/10 03:19:45;;;;;;;8.20;6.82;;;15.70;99.90;;;;;;4899515;29;20425;-68
2021/08/10 03:22:13;;;;;;;8.68;6.35;;;15.70;99.90;;;;;;4899298;29;20036;-68
2021/08/10 03:24:39;;;;;;;7.18;6.47;;;15.70;99.90;;;;;;4899454;29;20422;-69
2021/08/10 03:27:07;;;;;;;9.45;6.63;;;15.60;99.90;;;;;;4899219;29;20024;-69
2021/08/10 03:29:37;;;;;;;8.45;6.55;;;15.70;99.90;;;;;;4899494;29;20032;-69
2021/08/10 03:32:05;;;;;;;6.68;5.80;;;15.60;99.90;;;;;;4899519;29;20346;-69
2021/08/10 03:34:32;;;;;;;6.43;5.82;;;15.60;99.90;;;;;;4899128;29;20026;-69
2021/08/10 03:37:00;;;;;;;6.82;6.22;;;15.50;99.90;;;;;;4899135;29;20036;-69
2021/08/10 03:39:27;;;;;;;6.93;5.90;;;15.60;99.90;;;;;;4899122;29;20041;-69
2021/08/10 03:41:54;;;;;;;7.30;5.32;;;15.60;99.90;;;;;;4899150;29;20025;-69
2021/08/10 03:44:20;;;;;;;7.20;5.53;;;15.60;99.90;;;;;;4899008;29;20048;-69
2021/08/10 03:46:48;;;;;;;8.95;5.88;;;15.60;99.90;;;;;;4899205;29;20037;-69
2021/08/10 03:49:20;;;;;;;8.05;6.03;;;15.60;99.90;;;;;;4898735;29;20064;-69
2021/08/10 03:51:46;;;;;;;9.25;6.40;;;15.60;99.90;;;;;;4899221;29;20029;-69
2021/08/10 03:54:12;;;;;;;7.53;4.80;;;15.60;99.90;;;;;;4899045;29;20488;-69
2021/08/10 03:56:39;;;;;;;6.15;5.15;;;15.60;99.90;;;;;;4898550;29;20594;-69
2021/08/10 03:59:07;;;;;;;7.05;5.47;;;15.60;99.90;;;;;;4898671;29;20119;-70
2021/08/10 04:01:34;;;;;;;6.10;5.50;;;15.60;99.90;;;;;;4898902;29;20032;-69
2021/08/10 04:04:00;;;;;;;6.88;6.07;;;15.60;99.90;;;;;;4898549;29;20033;-68
2021/08/10 04:06:29;;;;;;;8.95;6.13;;;15.60;99.90;;;;;;4898676;29;20111;-69
2021/08/10 04:08:54;;;;;;;8.30;5.65;;;15.60;99.90;;;;;;4898386;29;20033;-68
2021/08/10 04:11:20;;;;;;;7.65;6.38;;;15.60;99.90;;;;;;4898765;29;20112;-68
2021/08/10 04:13:47;;;;;;;6.55;5.50;;;15.70;99.90;;;;;;4898676;29;20056;-68
2021/08/10 04:16:16;;;;;;;10.15;5.47;;;15.70;99.90;;;;;;4898600;29;20440;-68
2021/08/10 04:18:42;;;;;;;9.93;5.45;;;15.60;99.90;;;;;;4898199;29;20037;-68
2021/08/10 04:21:08;;;;;;;8.02;5.40;;;15.70;99.90;;;;;;4898607;29;20032;-68
2021/08/10 04:23:34;;;;;;;6.80;5.32;;;15.70;99.90;;;;;;4898204;29;20428;-68
2021/08/10 04:26:00;;;;;;;6.68;5.32;;;15.70;99.90;;;;;;4898498;29;20464;-68
2021/08/10 04:28:26;;;;;;;6.30;5.68;;;15.70;99.90;;;;;;4896755;29;20032;-68
2021/08/10 04:30:51;;;;;;;6.90;5.35;;;15.70;99.90;;;;;;4898085;29;20032;-67
2021/08/10 04:33:17;;;;;;;6.60;5.72;;;15.80;99.90;;;;;;4898048;29;20032;-68
2021/08/10 04:35:43;;;;;;;6.70;5.75;;;15.80;99.90;;;;;;4897768;29;20028;-69
2021/08/10 04:38:10;;;;;;;9.43;6.03;;;15.90;99.90;;;;;;4898145;29;20128;-69
2021/08/10 04:40:35;;;;;;;7.18;6.47;;;16.00;99.90;;;;;;4897995;29;20088;-70
2021/08/10 04:43:01;;;;;;;9.73;6.25;;;16.30;99.90;;;;;;4897902;29;20413;-71
2021/08/10 04:45:28;;;;;;;6.22;5.50;;;16.30;99.90;;;;;;4897932;29;20571;-71
2021/08/10 04:47:53;;;;;;;8.63;5.80;;;16.30;99.90;;;;;;4898048;29;20032;-70
2021/08/10 04:50:20;;;;;;;6.22;5.60;;;16.30;99.90;;;;;;4897694;29;20058;-69
2021/08/10 04:52:45;;;;;;;8.25;6.35;;;16.20;99.90;;;;;;4897656;29;20053;-69
2021/08/10 04:55:11;;;;;;;9.20;6.57;;;16.20;99.90;;;;;;4897704;29;20130;-70
2021/08/10 04:57:37;;;;;;;12.48;6.53;;;16.20;99.90;;;;;;4897003;29;20393;-69
2021/08/10 05:00:05;;;;;;;10.15;6.13;;;16.20;99.90;;;;;;4897493;29;20032;-70
2021/08/10 05:02:31;;;;;;;13.30;7.47;;;16.20;99.90;;;;;;4897287;29;20044;-69
2021/08/10 05:04:56;;;;;;;11.43;7.82;;;16.20;99.90;;;;;;4897848;29;20024;-69
2021/08/10 05:07:22;;;;;;;8.88;5.95;;;16.20;99.90;;;;;;4897542;29;20076;-70
2021/08/10 05:09:48;;;;;;;10.95;6.18;;;16.20;99.90;;;;;;4897313;29;20500;-69
2021/08/10 05:12:14;;;;;;;7.63;5.60;;;16.20;99.90;;;;;;4897586;29;20105;-68
2021/08/10 05:14:40;;;;;;;6.50;5.32;;;16.20;99.90;;;;;;4897275;29;20397;-68
2021/08/10 05:17:05;;;;;;;8.13;5.63;;;16.20;99.90;;;;;;4897349;29;20040;-68
2021/08/10 05:19:31;;;;;;;12.05;6.13;;;16.30;99.90;;;;;;4896013;29;20107;-68
2021/08/10 05:21:57;;;;;;;7.07;4.80;;;16.30;99.90;;;;;;4897380;29;20222;-68
2021/08/10 05:24:22;;;;;;;6.20;4.95;;;16.30;99.90;;;;;;4897461;29;20080;-68
2021/08/10 05:26:48;;;;;;;12.65;5.88;;;16.30;99.90;;;;;;4908538;29;20055;-68
2021/08/10 05:29:14;;;;;;;6.95;5.50;;;16.30;99.90;;;;;;4916048;29;20365;-68
2021/08/10 05:31:40;;;;;;;11.32;7.75;;;16.30;99.90;;;;;;4916192;29;20031;-68
2021/08/10 05:34:06;;;;;;;11.07;7.07;;;16.40;99.90;;;;;;4916229;29;20428;-66
2021/08/10 05:36:31;;;;;;;7.75;6.38;;;16.40;99.90;;;;;;4915991;29;20156;-68
2021/08/10 05:38:57;;;;;;;13.00;6.28;;;16.40;99.90;;;;;;4915851;29;20489;-68
2021/08/10 05:41:23;;;;;;;5.68;4.95;;;16.40;99.90;;;;;;4916196;29;20071;-68
2021/08/10 05:43:50;;;;;;;8.95;5.68;;;16.40;99.90;;;;;;4915973;29;20381;-68
2021/08/10 05:46:16;;;;;;;8.15;5.15;;;16.50;99.90;;;;;;4915964;29;20044;-67
2021/08/10 05:48:41;;;;;;;8.77;4.57;;;16.50;99.90;;;;;;4915441;29;20032;-68
2021/08/10 05:51:07;;;;;;;8.18;5.20;;;16.50;99.90;;;;;;4915798;29;20068;-67
2021/08/10 05:53:34;;;;;;;6.78;4.80;;;16.50;99.90;;;;;;4914978;29;20087;-67
2021/08/10 05:56:01;;;;;;;7.65;4.57;;;16.60;99.90;;;;;;4913906;29;20032;-68
2021/08/10 05:58:27;;;;;;;9.80;4.97;;;16.60;99.90;;;;;;4906376;29;20463;-70
2021/08/10 06:00:53;;;;;;;7.00;4.35;;;16.60;99.90;;;;;;4902042;29;20016;-69
2021/08/10 06:03:19;;;;;;;4.40;4.00;;;16.60;99.90;;;;;;4915873;29;20032;-69
2021/08/10 06:05:45;;;;;;;9.20;4.60;;;16.70;99.90;;;;;;4915551;29;20476;-69
2021/08/10 06:08:11;;;;;;;7.75;4.13;;;16.80;99.90;;;;;;4918333;29;20036;-68
2021/08/10 06:10:37;;;;;;;4.50;3.55;;;16.90;99.90;;;;;;4919512;29;20584;-67
2021/08/10 06:13:03;;;;;;;5.55;4.25;;;17.00;99.90;;;;;;4919455;29;20028;-68
2021/08/10 06:15:29;;;;;;;9.25;4.20;;;17.00;99.90;;;;;;4919441;29;20107;-67
2021/08/10 06:17:55;;;;;;;7.32;3.97;;;16.90;99.90;;;;;;4919661;29;20480;-69
2021/08/10 06:20:22;;;;;;;7.57;3.13;;;17.00;99.90;;;;;;4919426;29;20476;-68
2021/08/10 06:22:47;;;;;;;4.72;3.65;;;17.10;99.90;;;;;;4919283;29;20035;-68
2021/08/10 06:25:13;;;;;;;9.25;3.45;;;17.50;99.90;;;;;;4919476;29;20032;-68
2021/08/10 06:27:40;;;;;;;5.22;3.55;;;17.50;99.90;;;;;;4919096;29;20031;-68
2021/08/10 06:30:07;;;;;;;3.85;3.53;;;17.30;99.90;;;;;;4919310;29;20087;-68
2021/08/10 06:32:32;;;;;;;6.50;3.70;;;17.20;99.90;;;;;;4918951;29;20388;-68
2021/08/10 06:34:58;;;;;;;3.67;3.25;;;17.10;99.90;;;;;;4919347;29;20038;-68
2021/08/10 06:37:24;;;;;;;7.10;3.88;;;17.10;99.90;;;;;;4918895;29;20504;-68
2021/08/10 06:39:50;;;;;;;5.60;3.63;;;17.10;99.90;;;;;;4918456;29;20020;-68
2021/08/10 06:42:20;;;;;;;9.00;3.70;;;17.10;99.90;;;;;;4919126;29;20032;-68
2021/08/10 06:44:46;;;;;;;4.20;3.75;;;17.10;99.90;;;;;;4918610;29;20392;-68
2021/08/10 06:47:12;;;;;;;7.35;4.35;;;17.00;99.90;;;;;;4918867;29;20121;-68
2021/08/10 06:49:39;;;;;;;10.60;3.33;;;17.00;99.90;;;;;;4918491;29;20143;-68
2021/08/10 06:52:06;;;;;;;8.43;4.00;;;17.00;99.90;;;;;;4918854;29;20108;-68
2021/08/10 06:54:32;;;;;;;9.00;4.15;;;17.10;99.90;;;;;;4918458;29;20514;-68
2021/08/10 06:57:04;;;;;;;6.95;4.22;;;17.10;99.90;;;;;;4918513;29;20044;-68
2021/08/10 06:59:30;;;;;;;12.10;4.32;;;17.10;99.90;;;;;;4918775;29;20036;-68
2021/08/10 07:01:56;;;;;;;14.88;5.18;;;17.00;99.90;;;;;;4915732;29;20700;-68
2021/08/10 07:04:21;;;;;;;6.38;4.20;;;17.00;99.90;;;;;;4909496;29;20035;-68
2021/08/10 07:06:47;;;;;;;5.70;4.20;;;16.90;99.90;;;;;;4903767;29;20035;-68
2021/08/10 07:09:15;;;;;;;12.25;4.57;;;17.00;99.90;;;;;;4908959;29;20057;-68
2021/08/10 07:11:42;;;;;;;10.32;4.43;;;17.00;99.90;;;;;;4912905;29;20036;-66
2021/08/10 07:14:12;;;;;;;11.60;5.05;;;17.00;99.90;;;;;;4918434;29;20380;-66
2021/08/10 07:16:42;;;;;;;5.70;4.43;;;17.00;99.90;;;;;;4918277;29;20107;-66
2021/08/10 07:19:09;;;;;;;11.70;4.97;;;17.00;99.90;;;;;;4917533;29;20062;-67
2021/08/10 07:21:35;;;;;;;9.40;5.07;;;17.00;99.90;;;;;;4918121;29;20127;-68
2021/08/10 07:24:01;;;;;;;10.63;4.88;;;16.90;99.90;;;;;;4918161;29;20035;-68
2021/08/10 07:26:27;;;;;;;7.15;4.95;;;16.90;99.90;;;;;;4917995;29;20400;-68
2021/08/10 07:28:53;;;;;;;8.95;5.50;;;16.90;99.90;;;;;;4917904;29;20039;-68
2021/08/10 07:31:19;;;;;;;7.65;5.10;;;16.90;99.90;;;;;;4918151;29;20102;-68
2021/08/10 07:33:44;;;;;;;7.80;5.50;;;16.80;99.90;;;;;;4917861;29;20488;-68
2021/08/10 07:36:10;;;;;;;10.82;5.80;;;16.80;99.90;;;;;;4917876;29;20095;-68
2021/08/10 07:38:36;;;;;;;10.73;6.70;;;16.80;99.90;;;;;;4917755;29;20111;-68
2021/08/10 07:41:02;;;;;;;9.35;6.10;;;16.80;99.90;;;;;;4917159;29;20036;-68
2021/08/10 07:43:27;;;;;;;7.47;5.45;;;16.80;99.90;;;;;;4895930;29;20032;-68
2021/08/10 07:45:56;;;;;;;7.95;6.18;;;16.80;99.90;;;;;;4898401;29;20060;-68
2021/08/10 07:48:22;;;;;;;11.40;6.53;;;16.80;99.90;;;;;;4898696;29;20056;-71
2021/08/10 07:50:48;;;;;;;10.13;5.28;;;16.90;99.90;;;;;;4898731;29;20084;-71
2021/08/10 07:53:15;;;;;;;7.28;4.80;;;16.90;99.90;;;;;;4898512;29;20033;-69
2021/08/10 07:55:42;;;;;;;5.63;4.97;;;17.00;99.90;;;;;;4898269;29;20029;-69
2021/08/10 07:58:08;;;;;;;12.40;6.97;;;17.10;99.90;;;;;;4909664;29;20084;-69
2021/08/10 08:00:34;;;;;;;6.70;5.22;;;17.20;99.90;;;;;;4910582;29;20024;-69
2021/08/10 08:03:00;;;;;;;6.68;5.10;;;17.30;99.90;;;;;;4917386;29;20412;-70
2021/08/10 08:05:26;;;;;;;7.57;5.22;;;17.30;99.90;;;;;;4917421;29;20036;-70
2021/08/10 08:07:51;;;;;;;6.75;5.55;;;17.30;99.90;;;;;;4917221;29;20472;-70
2021/08/10 08:10:17;;;;;;;7.63;4.78;;;17.30;99.90;;;;;;4917299;29;20528;-70
2021/08/10 08:12:43;;;;;;;5.75;5.15;;;17.20;99.90;;;;;;4917183;29;20036;-68
2021/08/10 08:15:09;;;;;;;7.68;5.03;;;17.30;99.90;;;;;;4916936;29;20099;-68
2021/08/10 08:17:35;;;;;;;5.75;4.75;;;17.30;99.90;;;;;;4917126;29;20488;-68
2021/08/10 08:20:00;;;;;;;8.63;5.07;;;17.30;99.90;;;;;;4917089;29;20024;-68
2021/08/10 08:22:26;;;;;;;6.25;5.45;;;17.30;99.90;;;;;;4917100;29;20035;-68
2021/08/10 08:24:52;;;;;;;7.25;5.57;;;17.30;99.90;;;;;;4916833;29;20032;-68
2021/08/10 08:27:18;;;;;;;5.72;5.18;;;17.30;99.90;;;;;;4916887;29;20036;-70
2021/08/10 08:29:44;;;;;;;7.00;4.90;;;17.40;99.90;;;;;;4915614;29;20072;-69
2021/08/10 08:32:10;;;;;;;7.25;5.30;;;17.40;99.90;;;;;;4898509;29;20033;-70
2021/08/10 08:34:36;;;;;;;7.72;5.28;;;17.50;99.90;;;;;;4898079;29;20488;-69
2021/08/10 08:37:03;;;;;;;8.15;5.57;;;17.60;99.90;;;;;;4897980;29;20036;-71
2021/08/10 08:39:29;;;;;;;8.23;5.70;;;17.70;99.90;;;;;;4897976;29;20068;-71
2021/08/10 08:41:56;;;;;;;8.10;4.93;;;18.00;99.90;;;;;;4898014;29;20039;-71
2021/08/10 08:44:22;;;;;;;9.02;4.65;;;18.20;99.90;;;;;;4897712;29;20548;-69
2021/08/10 08:46:49;;;;;;;7.85;4.70;;;18.20;99.90;;;;;;4897607;29;20020;-69
2021/08/10 08:49:20;;;;;;;5.93;4.80;;;18.10;99.90;;;;;;4897590;29;20063;-69
2021/08/10 08:51:58;;;;;;;5.60;4.45;;;18.10;99.90;;;;;;5089384;27;20589;-70
2021/08/10 08:54:25;;;;;;;5.57;4.45;;;18.10;99.90;;;;;;5089394;28;20108;-70
2021/08/10 08:56:51;;;;;;;4.60;4.05;;;18.10;99.90;;;;;;5089143;28;20024;-69
2021/08/10 08:59:18;;;;;;;6.18;4.28;;;18.10;99.90;;;;;;5089236;28;20433;-68
2021/08/10 09:01:44;;;;;;;5.03;3.88;;;18.10;99.90;;;;;;5089060;28;20027;-68
2021/08/10 09:04:10;;;;;;;3.72;3.42;;;18.10;99.90;;;;;;5089128;28;20073;-68
2021/08/10 09:06:35;;;;;;;5.85;3.80;;;18.20;99.90;;;;;;5088957;28;20028;-69
2021/08/10 09:09:27;;;;;;;6.50;3.50;;;18.40;99.90;;;;;;5089107;28;20084;-68
2021/08/10 09:11:55;;;;;;;4.55;3.80;;;18.40;99.90;;;;;;5088802;28;20032;-70
2021/08/10 09:14:23;;;;;;;4.20;3.47;;;18.40;99.90;;;;;;5089368;28;20032;-67
2021/08/10 09:17:09;;;;;;;7.65;3.53;;;18.40;99.90;;;;;;5088964;28;20024;-74
2021/08/10 09:19:49;;;;;;;3.90;3.42;;;18.40;99.90;;;;;;5089030;28;20025;-72
2021/08/10 09:22:21;;;;;;;4.00;3.58;;;18.50;99.90;;;;;;5089044;28;20100;-72
2021/08/10 09:24:56;;;;;;;3.92;3.53;;;18.50;99.90;;;;;;5088609;28;20520;-72
2021/08/10 09:27:28;;;;;;;6.03;4.15;;;18.50;99.90;;;;;;5088879;28;20026;-71
2021/08/10 09:29:54;;;;;;;4.82;4.00;;;18.60;99.90;;;;;;5088553;28;20031;-67
2021/08/10 09:32:21;;;;;;;9.07;4.05;;;18.60;99.90;;;;;;5078640;28;20036;-68
2021/08/10 09:35:08;;;;;;;9.77;4.15;;;18.60;99.90;;;;;;5068440;28;20033;-68
2021/08/10 09:37:34;;;;;;;8.82;4.38;;;18.70;99.90;;;;;;5068668;28;20476;-68
2021/08/10 09:40:00;;;;;;;5.93;4.03;;;18.80;99.90;;;;;;5068242;28;20403;-67
2021/08/10 09:42:26;;;;;;;6.03;3.67;;;18.90;99.90;;;;;;5068344;28;20104;-67
2021/08/10 09:44:59;;;;;;;5.15;3.80;;;19.00;99.90;;;;;;5068308;28;20035;-67
2021/08/10 09:47:36;;;;;;;4.03;3.55;;;19.10;99.90;;;;;;5068438;28;20025;-67
2021/08/10 09:50:14;;;;;;;10.23;4.25;;;19.20;99.90;;;;;;5067804;28;20044;-67
2021/08/10 09:52:40;;;;;;;8.68;3.85;;;19.20;99.90;;;;;;5067953;28;20074;-67
2021/08/10 09:55:14;;;;;;;8.43;4.22;;;19.20;99.90;;;;;;5068052;28;20033;-67
2021/08/10 09:57:43;;;;;;;7.03;3.67;;;19.30;99.90;;;;;;5067934;28;20031;-67
2021/08/10 10:00:10;;;;;;;3.85;3.00;;;19.30;99.90;;;;;;5067961;28;20502;-67
2021/08/10 10:02:36;;;;;;;6.82;3.75;;;19.30;99.90;;;;;;5058287;28;20036;-68
2021/08/10 10:05:02;;;;;;;7.28;3.58;;;19.30;99.90;;;;;;5054751;28;20128;-70
2021/08/10 10:07:28;;;;;;;3.28;2.97;;;19.30;99.90;;;;;;5055012;28;20408;-70
2021/08/10 10:09:54;;;;;;;5.53;3.50;;;19.30;99.90;;;;;;5054347;28;20029;-70
2021/08/10 10:12:24;;;;;;;5.55;3.30;;;19.30;99.90;;;;;;5054939;28;20032;-70
2021/08/10 10:14:54;;;;;;;6.65;3.00;;;19.20;99.90;;;;;;5054520;28;20025;-70
2021/08/10 10:17:20;;;;;;;5.10;2.97;;;19.20;99.90;;;;;;5054862;28;20048;-70
2021/08/10 10:19:46;;;;;;;5.65;3.47;;;19.20;99.90;;;;;;5054236;28;20481;-70
2021/08/10 10:22:21;;;;;;;7.22;2.72;;;19.20;99.90;;;;;;5054366;28;20028;-70
2021/08/10 10:25:00;;;;;;;4.15;2.50;;;19.30;99.90;;;;;;5054153;28;20028;-70
2021/08/10 10:27:26;;;;;;;3.50;3.03;;;19.40;99.90;;;;;;5054503;28;20029;-70
2021/08/10 10:29:54;;;;;;;7.25;4.18;;;19.40;99.90;;;;;;5053985;28;20789;-70
2021/08/10 10:32:22;;;;;;;7.20;4.72;;;19.40;99.90;;;;;;5054268;28;20498;-70
2021/08/10 10:34:48;;;;;;;6.53;4.68;;;19.40;99.90;;;;;;5053888;28;20461;-68
2021/08/10 10:37:23;;;;;;;9.55;5.85;;;19.40;99.90;;;;;;5054166;28;20029;-69
2021/08/10 10:39:57;;;;;;;6.10;4.88;;;19.40;99.90;;;;;;5054177;28;20029;-69
2021/08/10 10:42:23;;;;;;;8.02;5.32;;;19.40;99.90;;;;;;5054214;28;20021;-69
2021/08/10 10:44:51;;;;;;;8.68;5.93;;;19.30;99.90;;;;;;5054226;28;20139;-69
2021/08/10 10:47:41;;;;;;;7.90;6.32;;;19.20;99.90;;;;;;5054332;28;20384;-67
2021/08/10 10:50:11;;;;;;;14.23;7.78;;;19.30;99.90;;;;;;5053798;28;20063;-69
2021/08/10 10:52:37;;;;;;;;;;;19.30;99.90;;;;;;5053152;28;20118;-69
2021/08/10 10:55:05;;;;;;;17.30;10.25;;;19.30;99.90;;;;;;5053618;28;19951;-69
2021/08/10 10:57:34;;;;;;;9.05;6.95;;;19.40;99.90;;;;;;5053827;28;20025;-69
2021/08/10 11:00:08;;;;;;;7.22;3.40;;;19.60;99.90;;;;;;5053454;28;20021;-69
2021/08/10 11:02:39;;;;;;;4.82;2.97;;;19.70;99.90;;;;;;5053748;28;20103;-69
2021/08/10 11:05:26;;;;;;;7.45;2.05;;;19.80;99.90;;;;;;5053616;28;20389;-69
2021/08/10 11:07:56;;;;;;;4.78;2.15;;;19.80;99.90;;;;;;5053560;28;20021;-70
2021/08/10 11:10:35;;;;;;;3.42;1.90;;;19.80;99.90;;;;;;5053686;28;20374;-69
2021/08/10 11:13:04;;;;;;;4.43;2.10;;;19.70;99.90;;;;;;5052833;28;20095;-70
2021/08/10 11:15:45;;;;;;;5.18;2.00;;;19.60;99.90;;;;;;5053156;28;20043;-71
2021/08/10 11:18:11;;;;;;;5.82;1.92;;;19.60;99.90;;;;;;5053330;28;20013;-71
2021/08/10 11:20:41;;;;;;;4.53;2.10;;;19.60;99.90;;;;;;5053269;28;20032;-71
2021/08/10 11:23:23;;;;;;;5.35;1.63;;;19.60;99.90;;;;;;5053003;28;20024;-71
2021/08/10 11:26:14;;;;;;;6.55;1.92;;;19.60;99.90;;;;;;5053317;28;20029;-71
2021/08/10 11:28:50;;;;;;;3.85;1.83;;;19.60;99.90;;;;;;5052952;28;20107;-71
2021/08/10 11:31:42;;;;;;;2.80;1.83;;;19.60;99.90;;;;;;5052908;28;20072;-71
2021/08/10 11:34:31;;;;;;;8.18;1.90;;;19.60;99.90;;;;;;5052905;28;20017;-71
2021/08/10 11:37:19;;;;;;;4.40;1.90;;;19.80;99.90;;;;;;5052761;28;20064;-71
2021/08/10 11:40:03;;;;;;;4.03;1.80;;;20.00;99.90;;;;;;5052514;28;20099;-71
2021/08/10 11:42:30;;;;;;;7.95;1.90;;;20.00;99.90;;;;;;5052889;28;20028;-69
2021/08/10 11:44:57;;;;;;;6.70;1.92;;;20.00;99.90;;;;;;5052530;28;20488;-69
2021/08/10 11:47:23;;;;;;;8.18;1.77;;;20.00;99.90;;;;;;5052706;28;20032;-69
2021/08/10 11:49:57;;;;;;;3.80;1.42;;;20.00;99.90;;;;;;5051023;28;20049;-69
2021/08/10 11:52:39;;;;;;;3.03;1.70;;;20.20;99.90;;;;;;5052823;28;20029;-69
2021/08/10 11:55:04;;;;;;;8.38;1.80;;;20.20;99.90;;;;;;5052549;28;20472;-69
2021/08/10 11:57:31;;;;;;;3.97;1.60;;;20.30;99.90;;;;;;5052814;28;20029;-69
2021/08/10 12:00:13;;;;;;;4.78;2.10;;;20.30;99.90;;;;;;5052360;28;20024;-69
2021/08/10 12:02:44;;;;;;;2.35;1.80;;;20.40;99.90;;;;;;5052565;28;20017;-69
2021/08/10 12:05:10;;;;;;;2.67;1.40;;;20.40;99.90;;;;;;5052785;28;20021;-69
2021/08/10 12:07:36;;;;;;;4.32;1.60;;;20.40;99.90;;;;;;5052866;28;20075;-69
2021/08/10 12:10:03;;;;;;;4.38;1.58;;;20.50;99.90;;;;;;5052152;28;20025;-70
2021/08/10 12:12:33;;;;;;;3.28;1.60;;;20.50;99.90;;;;;;5052406;28;20079;-69
2021/08/10 12:14:59;;;;;;;4.35;1.60;;;20.40;99.90;;;;;;5052059;28;20033;-69
2021/08/10 12:17:25;;;;;;;5.07;1.55;;;20.30;99.90;;;;;;5052334;28;20059;-69
2021/08/10 12:19:50;;;;;;;2.47;1.52;;;20.30;99.90;;;;;;5052341;28;20031;-69
2021/08/10 12:22:20;;;;;;;2.00;1.73;;;20.30;99.90;;;;;;5052423;28;20427;-69
2021/08/10 12:24:48;;;;;;;9.00;2.05;;;20.40;99.90;;;;;;5051949;28;20025;-69
2021/08/10 12:27:15;;;;;;;5.10;1.77;;;20.40;99.90;;;;;;5052377;28;20388;-69
2021/08/10 12:29:43;;;;;;;2.10;1.83;;;20.40;99.90;;;;;;5052022;28;20013;-69
2021/08/10 12:32:20;;;;;;;6.65;1.90;;;20.50;99.90;;;;;;5051951;28;20059;-70
2021/08/10 12:34:46;;;;;;;5.50;1.88;;;20.60;99.90;;;;;;5062472;28;20085;-70
2021/08/10 12:37:13;;;;;;;3.83;1.83;;;20.60;99.90;;;;;;5069720;28;20028;-70
2021/08/10 12:39:44;;;;;;;1.95;1.50;;;20.60;99.90;;;;;;5071353;28;20023;-70
2021/08/10 12:42:11;;;;;;;4.88;1.80;;;20.40;99.90;;;;;;5071861;28;20064;-70
2021/08/10 12:44:38;;;;;;;6.25;1.92;;;20.40;99.90;;;;;;5072097;28;20097;-70
2021/08/10 12:47:06;;;;;;;3.47;1.67;;;20.30;99.90;;;;;;5071847;28;20025;-70
2021/08/10 12:49:42;;;;;;;4.55;2.03;;;20.30;99.90;;;;;;5056435;28;20107;-70
2021/08/10 12:52:12;;;;;;;2.47;1.52;;;20.20;99.90;;;;;;5051747;28;20110;-69
2021/08/10 12:54:47;;;;;;;5.25;1.70;;;20.10;99.90;;;;;;5051754;28;20481;-70
2021/08/10 12:57:24;;;;;;;5.45;2.22;;;20.10;99.90;;;;;;5057557;28;20025;-70
2021/08/10 12:59:50;;;;;;;4.30;2.10;;;20.10;99.90;;;;;;5060520;28;20033;-70
2021/08/10 13:02:34;;;;;;;7.43;1.95;;;20.10;99.90;;;;;;5061159;28;20025;-70
2021/08/10 13:05:01;;;;;;;3.70;1.90;;;20.10;99.90;;;;;;5061995;28;20515;-70
2021/08/10 13:07:27;;;;;;;4.50;2.00;;;20.10;99.90;;;;;;5071534;28;20037;-72
2021/08/10 13:09:58;;;;;;;4.55;2.00;;;20.10;99.90;;;;;;5060341;28;20499;-72
2021/08/10 13:12:26;;;;;;;13.82;3.05;;;20.10;99.90;;;;;;5060818;28;20032;-72
2021/08/10 13:15:18;;;;;;;7.78;2.60;;;20.10;99.90;;;;;;5060222;28;20028;-72
2021/08/10 13:17:44;;;;;;;5.53;2.50;;;20.00;99.90;;;;;;5063173;28;20067;-72
2021/08/10 13:20:16;;;;;;;4.18;2.35;;;20.00;99.90;;;;;;5065547;28;20064;-72